createdAt,value
2023-02-28T00:00:54.920Z,5.57
2023-02-28T00:03:21.320Z,4.55
2023-02-28T00:05:47.835Z,5.32
2023-02-28T00:08:14.484Z,7.00
2023-02-28T00:10:40.867Z,12.25
2023-02-28T00:13:07.787Z,6.70
2023-02-28T00:15:35.261Z,8.65
2023-02-28T00:18:03.212Z,9.40
2023-02-28T00:20:30.494Z,11.68
2023-02-28T00:22:57.266Z,9.43
2023-02-28T00:25:26.469Z,8.60
2023-02-28T00:27:53.668Z,7.72
2023-02-28T00:30:22.702Z,7.28
2023-02-28T00:32:49.725Z,10.63
2023-02-28T00:35:16.428Z,4.60
2023-02-28T00:37:43.654Z,5.28
2023-02-28T00:40:12.238Z,5.05
2023-02-28T00:42:39.073Z,5.47
2023-02-28T00:45:06.337Z,7.97
2023-02-28T00:47:33.388Z,6.40
2023-02-28T00:50:00.298Z,7.10
2023-02-28T00:52:26.862Z,7.13
2023-02-28T00:54:53.210Z,6.47
2023-02-28T00:57:19.757Z,7.85
2023-02-28T00:59:46.202Z,7.03
2023-02-28T01:02:12.586Z,10.02
2023-02-28T01:04:40.172Z,3.60
2023-02-28T01:07:06.828Z,7.82
2023-02-28T01:09:33.513Z,3.60
2023-02-28T01:12:00.346Z,4.90
2023-02-28T01:14:26.935Z,3.33
2023-02-28T01:16:53.379Z,5.65
2023-02-28T01:19:20.308Z,9.48
2023-02-28T01:21:46.933Z,7.50
2023-02-28T01:24:13.336Z,7.50
2023-02-28T01:26:40.211Z,5.65
2023-02-28T01:29:06.579Z,9.27
2023-02-28T01:31:33.279Z,10.43
2023-02-28T01:34:00.128Z,6.60
2023-02-28T01:36:27.078Z,8.48
2023-02-28T01:38:53.583Z,7.53
2023-02-28T01:41:25.735Z,11.48
2023-02-28T01:44:05.422Z,10.82
2023-02-28T01:46:34.065Z,12.30
2023-02-28T01:49:09.916Z,8.40
2023-02-28T01:51:52.346Z,9.70
2023-02-28T01:54:29.437Z,8.15
2023-02-28T01:57:07.010Z,15.40
2023-02-28T01:59:52.089Z,13.90
2023-02-28T02:02:23.031Z,13.02
2023-02-28T02:05:02.869Z,13.18
2023-02-28T02:07:34.223Z,13.80
2023-02-28T02:10:04.635Z,9.23
2023-02-28T02:13:04.537Z,7.00
2023-02-28T02:15:53.957Z,8.60
2023-02-28T02:18:23.253Z,6.72
2023-02-28T02:21:11.804Z,10.45
2023-02-28T02:24:03.634Z,4.85
2023-02-28T02:27:21.784Z,6.13
2023-02-28T02:30:21.488Z,13.63
2023-02-28T02:32:47.790Z,10.93
2023-02-28T02:35:27.071Z,11.30
2023-02-28T02:38:10.336Z,9.43
2023-02-28T02:40:48.086Z,6.00
2023-02-28T02:43:20.677Z,4.53
2023-02-28T02:45:53.079Z,6.43
2023-02-28T02:48:22.585Z,9.45
2023-02-28T02:50:58.952Z,5.22
2023-02-28T02:53:33.354Z,6.95
2023-02-28T02:56:02.356Z,9.43
2023-02-28T02:58:35.207Z,7.28
2023-02-28T03:01:04.519Z,12.38
2023-02-28T03:03:33.619Z,6.50
2023-02-28T03:06:01.915Z,10.20
2023-02-28T03:11:00.753Z,9.45
2023-02-28T03:13:53.088Z,14.35
2023-02-28T03:16:39.813Z,4.22
2023-02-28T03:19:29.446Z,6.13
2023-02-28T03:22:27.731Z,4.10
2023-02-28T03:25:30.158Z,5.97
2023-02-28T03:28:05.506Z,11.00
2023-02-28T03:30:55.496Z,11.25
2023-02-28T03:33:33.060Z,7.18
2023-02-28T03:36:21.428Z,9.77
2023-02-28T03:39:06.363Z,6.03
2023-02-28T03:41:39.788Z,11.95
2023-02-28T03:44:17.155Z,10.48
2023-02-28T03:46:51.870Z,9.85
2023-02-28T03:49:23.314Z,12.98
2023-02-28T03:51:52.039Z,10.07
2023-02-28T03:54:29.814Z,14.77
2023-02-28T03:57:03.190Z,16.92
2023-02-28T03:59:35.669Z,9.48
2023-02-28T04:02:02.498Z,13.88
2023-02-28T04:04:29.447Z,12.73
2023-02-28T04:07:05.051Z,9.18
2023-02-28T04:09:33.157Z,15.75
2023-02-28T04:11:59.746Z,18.52
2023-02-28T04:14:26.711Z,10.90
2023-02-28T04:16:53.607Z,16.25
2023-02-28T04:19:22.242Z,8.25
2023-02-28T04:21:54.206Z,5.93
2023-02-28T04:24:23.098Z,6.95
2023-02-28T04:26:52.251Z,5.72
2023-02-28T04:29:22.323Z,15.80
2023-02-28T04:31:49.205Z,5.57
2023-02-28T04:34:16.100Z,13.30
2023-02-28T04:36:42.491Z,9.70
2023-02-28T04:39:10.655Z,12.00
2023-02-28T04:41:37.331Z,8.57
2023-02-28T04:44:05.145Z,9.05
2023-02-28T04:46:31.718Z,13.27
2023-02-28T04:48:58.198Z,11.88
2023-02-28T04:51:24.605Z,6.00
2023-02-28T04:53:51.199Z,6.68
2023-02-28T04:56:19.208Z,7.95
2023-02-28T04:58:45.991Z,6.20
2023-02-28T05:01:37.450Z,4.55
2023-02-28T05:04:05.799Z,10.55
2023-02-28T05:09:01.926Z,4.00
2023-02-28T05:11:37.162Z,8.30
2023-02-28T05:14:05.741Z,8.13
2023-02-28T05:16:35.706Z,8.32
2023-02-28T05:19:02.194Z,5.85
2023-02-28T05:21:34.162Z,7.90
2023-02-28T05:24:03.210Z,7.70
2023-02-28T05:26:30.556Z,7.13
2023-02-28T05:28:59.896Z,10.57
2023-02-28T05:31:29.906Z,7.05
2023-02-28T05:33:58.664Z,13.15
2023-02-28T05:36:25.382Z,9.02
2023-02-28T05:38:52.625Z,8.90
2023-02-28T05:41:20.866Z,9.45
2023-02-28T05:46:16.263Z,6.07
2023-02-28T05:48:43.996Z,7.28
2023-02-28T05:51:11.737Z,6.90
2023-02-28T05:53:41.956Z,6.80
2023-02-28T05:56:08.281Z,8.02
2023-02-28T05:58:35.570Z,13.40
2023-02-28T06:01:24.712Z,7.63
2023-02-28T06:03:51.755Z,16.27
2023-02-28T06:06:18.217Z,10.00
2023-02-28T06:08:45.610Z,7.72
2023-02-28T06:11:12.118Z,41.00
2023-02-28T06:13:38.492Z,14.23
2023-02-28T06:16:05.302Z,19.55
2023-02-28T06:18:32.011Z,9.15
2023-02-28T06:20:58.525Z,8.93
2023-02-28T06:23:24.883Z,7.45
2023-02-28T06:25:51.577Z,7.90
2023-02-28T06:28:18.170Z,8.20
2023-02-28T06:30:46.428Z,8.30
2023-02-28T06:33:13.086Z,13.55
2023-02-28T06:35:39.416Z,15.10
2023-02-28T06:38:05.777Z,11.52
2023-02-28T06:40:35.116Z,12.90
2023-02-28T06:43:01.725Z,13.15
2023-02-28T06:45:28.321Z,10.25
2023-02-28T06:47:55.015Z,19.83
2023-02-28T06:50:21.474Z,22.58
2023-02-28T06:52:48.313Z,8.43
2023-02-28T06:55:15.014Z,9.68
2023-02-28T06:57:41.415Z,15.20
2023-02-28T07:00:10.550Z,17.13
2023-02-28T07:02:38.660Z,13.98
2023-02-28T07:05:06.820Z,14.80
2023-02-28T07:07:33.401Z,14.88
2023-02-28T07:09:59.959Z,7.85
2023-02-28T07:12:26.337Z,19.15
2023-02-28T07:14:52.821Z,13.55
2023-02-28T07:17:19.198Z,18.65
2023-02-28T07:19:45.600Z,17.42
2023-02-28T07:22:12.659Z,11.95
2023-02-28T07:24:40.110Z,13.23
2023-02-28T07:27:07.345Z,10.23
2023-02-28T07:29:33.709Z,10.10
2023-02-28T07:32:00.086Z,11.57
2023-02-28T07:34:27.119Z,9.32
2023-02-28T07:36:54.757Z,14.23
2023-02-28T07:39:22.640Z,10.45
2023-02-28T07:41:49.040Z,14.82
2023-02-28T07:44:15.684Z,7.28
2023-02-28T07:46:42.036Z,13.15
2023-02-28T07:49:08.511Z,11.93
2023-02-28T07:51:35.023Z,16.67
2023-02-28T07:54:01.497Z,15.13
2023-02-28T07:56:28.402Z,8.95
2023-02-28T07:58:55.116Z,12.95
2023-02-28T08:01:21.830Z,8.82
2023-02-28T08:03:48.615Z,12.50
2023-02-28T08:06:21.126Z,11.05
2023-02-28T08:08:48.009Z,6.68
2023-02-28T08:11:15.358Z,9.65
2023-02-28T08:13:43.537Z,9.73
2023-02-28T08:16:10.649Z,8.93
2023-02-28T08:18:37.281Z,7.43
2023-02-28T08:21:08.400Z,12.55
2023-02-28T08:23:34.768Z,8.73
2023-02-28T08:26:01.130Z,7.53
2023-02-28T08:28:27.752Z,10.27
2023-02-28T08:30:54.838Z,8.32
2023-02-28T08:33:21.726Z,13.10
2023-02-28T08:35:48.317Z,12.18
2023-02-28T08:38:14.626Z,7.35
2023-02-28T08:40:41.564Z,11.10
2023-02-28T08:43:07.938Z,11.23
2023-02-28T08:45:34.434Z,10.40
2023-02-28T08:48:00.796Z,9.82
2023-02-28T08:50:27.729Z,7.68
2023-02-28T08:52:54.218Z,6.22
2023-02-28T08:55:21.983Z,7.72
2023-02-28T08:57:48.402Z,8.68
2023-02-28T09:00:15.396Z,8.43
2023-02-28T09:02:43.617Z,8.73
2023-02-28T09:05:11.292Z,12.70
2023-02-28T09:07:37.672Z,6.45
2023-02-28T09:10:04.636Z,9.38
2023-02-28T09:12:35.432Z,5.47
2023-02-28T09:15:02.439Z,6.20
2023-02-28T09:17:30.621Z,8.63
2023-02-28T09:19:58.051Z,6.63
2023-02-28T09:22:24.838Z,3.92
2023-02-28T09:24:51.252Z,7.88
2023-02-28T09:27:18.124Z,6.18
2023-02-28T09:29:44.551Z,8.65
2023-02-28T09:32:11.072Z,7.75
2023-02-28T09:34:38.307Z,5.65
2023-02-28T09:37:04.794Z,7.25
2023-02-28T09:39:31.906Z,6.25
2023-02-28T09:41:58.739Z,8.35
2023-02-28T09:44:37.482Z,3.92
2023-02-28T09:47:28.628Z,5.22
2023-02-28T09:49:59.645Z,6.53
2023-02-28T09:52:31.379Z,8.07
2023-02-28T09:55:19.087Z,6.18
2023-02-28T09:57:46.807Z,4.97
2023-02-28T10:00:26.016Z,4.55
2023-02-28T10:03:26.436Z,5.43
2023-02-28T10:06:05.519Z,5.55
2023-02-28T10:08:48.004Z,4.65
2023-02-28T10:11:18.041Z,4.35
2023-02-28T10:14:04.777Z,9.88
2023-02-28T10:16:47.293Z,4.85
2023-02-28T10:19:27.258Z,4.72
2023-02-28T10:22:03.311Z,4.22
2023-02-28T10:24:54.706Z,6.47
2023-02-28T10:27:23.610Z,4.65
2023-02-28T10:30:01.654Z,5.32
2023-02-28T10:32:31.917Z,7.30
2023-02-28T10:35:00.770Z,3.63
2023-02-28T10:37:29.556Z,3.33
2023-02-28T10:39:56.674Z,3.63
2023-02-28T10:42:28.925Z,4.28
2023-02-28T10:45:16.369Z,3.22
2023-02-28T10:47:56.896Z,3.42
2023-02-28T10:50:32.307Z,14.45
2023-02-28T10:53:15.727Z,4.65
2023-02-28T10:55:42.532Z,4.43
2023-02-28T10:58:29.834Z,6.80
2023-02-28T11:00:56.789Z,3.88
2023-02-28T11:03:31.985Z,4.72
2023-02-28T11:05:59.328Z,6.88
2023-02-28T11:08:26.242Z,5.90
2023-02-28T11:10:58.811Z,4.57
2023-02-28T11:13:34.724Z,4.38
2023-02-28T11:16:06.371Z,5.32
2023-02-28T11:18:54.751Z,6.63
2023-02-28T11:24:02.248Z,5.90
2023-02-28T11:26:47.310Z,3.45
2023-02-28T11:29:18.407Z,5.30
2023-02-28T11:31:45.010Z,5.60
2023-02-28T11:34:26.370Z,7.13
2023-02-28T11:36:55.539Z,5.45
2023-02-28T11:39:22.146Z,5.03
2023-02-28T11:41:58.693Z,6.80
2023-02-28T11:44:47.324Z,5.75
2023-02-28T11:47:22.368Z,5.57
2023-02-28T11:49:58.326Z,5.63
2023-02-28T11:52:54.898Z,8.20
2023-02-28T11:55:38.923Z,5.85
2023-02-28T11:58:25.096Z,5.35
2023-02-28T12:01:28.889Z,5.80
2023-02-28T12:04:26.987Z,4.00
2023-02-28T12:07:01.127Z,5.00
2023-02-28T12:09:45.010Z,5.95
2023-02-28T12:12:35.612Z,4.35
2023-02-28T12:15:23.329Z,5.40
2023-02-28T12:18:23.144Z,5.30
2023-02-28T12:21:02.998Z,6.63
2023-02-28T12:24:06.911Z,8.10
2023-02-28T12:26:40.907Z,11.40
2023-02-28T12:29:18.081Z,5.82
2023-02-28T12:31:54.159Z,4.45
2023-02-28T12:34:26.282Z,5.68
2023-02-28T12:36:57.204Z,6.47
2023-02-28T12:39:49.476Z,4.38
2023-02-28T12:42:30.375Z,5.85
2023-02-28T12:45:03.546Z,6.75
2023-02-28T12:47:31.243Z,5.43
2023-02-28T12:50:12.175Z,7.20
2023-02-28T12:53:01.665Z,7.25
2023-02-28T12:55:51.315Z,6.45
2023-02-28T12:58:38.834Z,6.10
2023-02-28T13:01:34.724Z,5.80
2023-02-28T13:04:01.314Z,10.50
2023-02-28T13:06:46.552Z,8.82
2023-02-28T13:09:16.537Z,5.97
2023-02-28T13:11:54.205Z,8.45
2023-02-28T13:14:25.109Z,4.25
2023-02-28T13:16:59.192Z,7.28
2023-02-28T13:19:28.431Z,8.60
2023-02-28T13:21:56.162Z,5.28
2023-02-28T13:24:41.032Z,9.77
2023-02-28T13:27:09.471Z,8.38
2023-02-28T13:29:42.968Z,5.50
2023-02-28T13:32:09.825Z,4.93
2023-02-28T13:34:38.940Z,6.82
2023-02-28T13:37:24.014Z,8.65
2023-02-28T13:39:54.222Z,6.53
2023-02-28T13:42:27.414Z,9.07
2023-02-28T13:45:02.836Z,5.88
2023-02-28T13:47:33.043Z,10.52
2023-02-28T13:50:27.391Z,7.03
2023-02-28T13:53:16.716Z,5.93
2023-02-28T13:56:11.306Z,10.27
2023-02-28T13:59:03.157Z,8.75
2023-02-28T14:02:01.470Z,8.38
2023-02-28T14:04:47.368Z,7.50
2023-02-28T14:07:24.904Z,6.32
2023-02-28T14:10:21.428Z,6.00
2023-02-28T14:13:12.026Z,5.90
2023-02-28T14:15:44.632Z,6.05
2023-02-28T14:18:18.937Z,6.72
2023-02-28T14:20:48.695Z,7.70
2023-02-28T14:23:31.570Z,5.15
2023-02-28T14:26:22.815Z,6.95
2023-02-28T14:29:16.119Z,5.18
2023-02-28T14:31:49.659Z,12.52
2023-02-28T14:34:43.928Z,4.65
2023-02-28T14:37:20.358Z,5.68
2023-02-28T14:39:47.767Z,5.22
2023-02-28T14:42:35.629Z,6.13
2023-02-28T14:45:03.972Z,7.53
2023-02-28T14:47:36.482Z,7.10
2023-02-28T14:50:05.196Z,7.03
2023-02-28T14:52:34.299Z,5.38
2023-02-28T14:55:05.043Z,6.65
2023-02-28T14:57:40.210Z,6.50
2023-02-28T15:00:22.557Z,8.68
2023-02-28T15:02:49.097Z,7.55
2023-02-28T15:05:18.702Z,5.53
2023-02-28T15:07:47.382Z,6.97
2023-02-28T15:10:26.408Z,5.65
2023-02-28T15:13:02.423Z,8.02
2023-02-28T15:16:05.072Z,6.90
2023-02-28T15:18:34.100Z,7.57
2023-02-28T15:21:07.425Z,4.95
2023-02-28T15:23:36.991Z,6.18
2023-02-28T15:26:03.918Z,5.32
2023-02-28T15:28:30.944Z,6.13
2023-02-28T15:31:01.730Z,8.38
2023-02-28T15:33:33.855Z,6.90
2023-02-28T15:36:18.524Z,4.45
2023-02-28T15:38:44.986Z,6.22
2023-02-28T15:41:38.991Z,6.53
2023-02-28T15:44:22.509Z,6.82
2023-02-28T15:47:00.141Z,5.47
2023-02-28T15:49:27.163Z,7.60
2023-02-28T15:51:56.579Z,7.03
2023-02-28T15:54:31.452Z,7.20
2023-02-28T15:57:02.704Z,4.90
2023-02-28T15:59:31.540Z,4.75
2023-02-28T16:02:12.926Z,6.43
2023-02-28T16:04:57.530Z,10.15
2023-02-28T16:07:25.110Z,4.80
2023-02-28T16:09:55.440Z,6.60
2023-02-28T16:12:26.877Z,7.15
2023-02-28T16:14:55.332Z,5.97
2023-02-28T16:19:50.221Z,6.25
2023-02-28T16:22:16.886Z,7.70
2023-02-28T16:24:43.541Z,9.70
2023-02-28T16:27:31.731Z,5.43
2023-02-28T16:29:58.282Z,6.10
2023-02-28T16:32:24.753Z,6.20
2023-02-28T16:34:51.701Z,6.60
2023-02-28T16:37:19.419Z,5.90
2023-02-28T16:39:46.780Z,8.43
2023-02-28T16:42:28.157Z,6.25
2023-02-28T16:44:56.231Z,5.88
2023-02-28T16:47:23.258Z,7.15
2023-02-28T16:49:49.814Z,7.25
2023-02-28T16:52:16.411Z,8.35
2023-02-28T16:54:43.140Z,8.52
2023-02-28T16:57:21.931Z,12.00
2023-02-28T16:59:51.627Z,5.38
2023-02-28T17:02:20.314Z,13.13
2023-02-28T17:04:47.541Z,8.02
2023-02-28T17:07:16.970Z,5.15
2023-02-28T17:09:45.740Z,6.65
2023-02-28T17:12:13.073Z,7.72
2023-02-28T17:14:39.509Z,6.25
2023-02-28T17:17:07.065Z,5.97
2023-02-28T17:19:35.208Z,7.30
2023-02-28T17:22:01.641Z,6.78
2023-02-28T17:24:31.229Z,8.68
2023-02-28T17:26:58.036Z,8.05
2023-02-28T17:29:25.315Z,7.53
2023-02-28T17:31:53.135Z,6.25
2023-02-28T17:34:20.499Z,9.20
2023-02-28T17:36:48.311Z,5.22
2023-02-28T17:39:16.523Z,10.02
2023-02-28T17:41:43.062Z,6.85
2023-02-28T17:44:10.017Z,11.82
2023-02-28T17:46:37.250Z,11.25
2023-02-28T17:49:04.266Z,12.18
2023-02-28T17:51:30.975Z,11.27
2023-02-28T17:53:57.363Z,9.93
2023-02-28T17:56:26.274Z,10.13
2023-02-28T17:58:54.856Z,12.32
2023-02-28T18:01:22.847Z,8.27
2023-02-28T18:03:49.445Z,9.57
2023-02-28T18:06:33.958Z,9.68
2023-02-28T18:09:00.563Z,10.80
2023-02-28T18:11:41.896Z,7.55
2023-02-28T18:14:09.038Z,8.15
2023-02-28T18:16:35.459Z,11.20
2023-02-28T18:19:04.525Z,8.13
2023-02-28T18:21:31.683Z,13.32
2023-02-28T18:23:58.452Z,7.30
2023-02-28T18:26:24.830Z,9.38
2023-02-28T18:28:51.212Z,10.40
2023-02-28T18:31:20.353Z,15.45
2023-02-28T18:33:51.427Z,10.48
2023-02-28T18:36:19.081Z,6.93
2023-02-28T18:38:45.964Z,15.60
2023-02-28T18:41:12.976Z,11.32
2023-02-28T18:43:39.513Z,8.35
2023-02-28T18:46:09.774Z,10.98
2023-02-28T18:48:36.741Z,11.80
2023-02-28T18:51:11.058Z,13.68
2023-02-28T18:53:42.658Z,13.15
2023-02-28T18:56:13.198Z,10.10
2023-02-28T18:58:40.266Z,9.07
2023-02-28T19:01:21.398Z,17.85
2023-02-28T19:03:49.874Z,14.82
2023-02-28T19:11:13.278Z,12.73
2023-02-28T19:13:39.953Z,13.48
2023-02-28T19:16:08.499Z,18.52
2023-02-28T19:18:35.685Z,11.45
2023-02-28T19:21:02.281Z,15.90
2023-02-28T19:23:29.218Z,10.02
2023-02-28T19:25:57.512Z,12.00
2023-02-28T19:28:24.246Z,16.70
2023-02-28T19:30:53.091Z,11.88
2023-02-28T19:33:20.758Z,11.95
2023-02-28T19:35:49.138Z,18.67
2023-02-28T19:40:42.241Z,13.45
2023-02-28T19:43:09.513Z,14.18
2023-02-28T19:45:37.908Z,14.32
2023-02-28T19:50:31.699Z,16.05
2023-02-28T19:52:59.995Z,14.82
2023-02-28T19:55:27.270Z,13.60
2023-02-28T19:57:53.661Z,14.00
2023-02-28T20:00:20.141Z,24.48
2023-02-28T20:02:46.577Z,16.30
2023-02-28T20:05:13.172Z,13.98
2023-02-28T20:07:39.539Z,13.20
2023-02-28T20:10:06.399Z,12.90
2023-02-28T20:12:32.938Z,16.50
2023-02-28T20:14:59.822Z,14.98
2023-02-28T20:17:26.253Z,15.82
2023-02-28T20:19:54.251Z,16.83
2023-02-28T20:22:20.898Z,18.63
2023-02-28T20:24:48.433Z,25.98
2023-02-28T20:27:15.605Z,16.37
2023-02-28T20:29:41.993Z,16.85
2023-02-28T20:32:08.523Z,16.52
2023-02-28T20:34:34.934Z,15.52
2023-02-28T20:37:01.511Z,17.70
2023-02-28T20:39:29.060Z,21.45
2023-02-28T20:41:55.462Z,20.10
2023-02-28T20:44:21.936Z,14.25
2023-02-28T20:46:48.389Z,15.57
2023-02-28T20:49:15.722Z,15.82
2023-02-28T20:51:42.264Z,14.02
2023-02-28T20:54:11.137Z,15.80
2023-02-28T20:56:38.302Z,16.85
2023-02-28T20:59:05.374Z,19.23
2023-02-28T21:01:32.662Z,14.20
2023-02-28T21:04:03.037Z,16.10
2023-02-28T21:06:33.045Z,16.52
2023-02-28T21:09:00.993Z,15.30
2023-02-28T21:11:30.124Z,21.38
2023-02-28T21:13:59.568Z,18.13
2023-02-28T21:16:27.056Z,23.42
2023-02-28T21:18:55.184Z,12.97
2023-02-28T21:21:24.438Z,16.75
2023-02-28T21:23:52.636Z,17.30
2023-02-28T21:26:21.410Z,20.83
2023-02-28T21:29:02.261Z,17.58
2023-02-28T21:31:31.994Z,38.25
2023-02-28T21:34:00.301Z,19.95
2023-02-28T21:36:32.815Z,19.20
2023-02-28T21:39:08.102Z,18.63
2023-02-28T21:41:36.181Z,16.00
2023-02-28T21:44:02.566Z,20.23
2023-02-28T21:46:30.495Z,18.95
2023-02-28T21:48:58.459Z,14.90
2023-02-28T21:51:33.762Z,16.30
2023-02-28T21:54:00.618Z,16.10
2023-02-28T21:56:30.386Z,17.17
2023-02-28T21:59:00.298Z,18.92
2023-02-28T22:01:32.548Z,18.17
2023-02-28T22:03:59.712Z,16.30
2023-02-28T22:06:29.045Z,22.17
2023-02-28T22:08:57.490Z,20.58
2023-02-28T22:11:25.921Z,24.40
2023-02-28T22:16:21.001Z,17.10
2023-02-28T22:18:47.757Z,15.60
2023-02-28T22:21:15.980Z,17.88
2023-02-28T22:23:42.794Z,18.27
2023-02-28T22:26:12.813Z,16.52
2023-02-28T22:28:39.541Z,15.50
2023-02-28T22:31:17.692Z,18.35
2023-02-28T22:33:45.354Z,19.05
2023-02-28T22:36:15.876Z,16.45
2023-02-28T22:38:43.568Z,16.70
2023-02-28T22:41:11.785Z,19.98
2023-02-28T22:43:41.719Z,19.63
2023-02-28T22:46:10.076Z,20.20
2023-02-28T22:51:05.240Z,18.27
2023-02-28T22:53:33.532Z,16.45
2023-02-28T22:58:27.801Z,16.33
2023-02-28T23:00:58.047Z,16.50
2023-02-28T23:03:25.897Z,19.20
2023-02-28T23:05:53.138Z,15.52
2023-02-28T23:08:23.497Z,18.63
2023-02-28T23:10:52.280Z,18.98
2023-02-28T23:13:19.992Z,18.17
2023-02-28T23:15:48.277Z,17.92
2023-02-28T23:18:16.826Z,16.65
2023-02-28T23:20:44.013Z,16.00
2023-02-28T23:23:10.755Z,17.55
2023-02-28T23:25:41.669Z,16.90
2023-02-28T23:28:10.171Z,20.75
2023-02-28T23:30:42.737Z,18.73
2023-02-28T23:33:09.080Z,16.85
2023-02-28T23:35:35.457Z,18.42
2023-02-28T23:38:01.925Z,16.38
2023-02-28T23:40:28.274Z,18.80
2023-02-28T23:42:54.644Z,19.65
2023-02-28T23:45:23.699Z,18.67
2023-02-28T23:47:51.135Z,21.38
2023-02-28T23:50:17.596Z,16.83
2023-02-28T23:52:43.958Z,18.92
2023-02-28T23:55:10.898Z,15.90
2023-02-28T23:57:39.066Z,22.13
